createdAt,value
2022-12-11T00:01:45.905Z,97888.34
2022-12-11T00:04:19.063Z,97886.69
2022-12-11T00:06:45.733Z,97885.69
2022-12-11T00:09:17.649Z,97883.97
2022-12-11T00:11:44.853Z,97872.84
2022-12-11T00:14:14.071Z,97869.47
2022-12-11T00:16:43.648Z,97874.56
2022-12-11T00:19:10.547Z,97874.56
2022-12-11T00:21:39.481Z,97873.75
2022-12-11T00:24:08.884Z,97877.84
2022-12-11T00:26:35.487Z,97881.25
2022-12-11T00:29:04.790Z,97872.78
2022-12-11T00:35:18.556Z,97886.19
2022-12-11T00:37:45.165Z,97879.50
2022-12-11T00:40:11.927Z,97869.19
2022-12-11T00:42:54.411Z,97871.59
2022-12-11T00:45:23.607Z,97879.28
2022-12-11T00:47:50.640Z,97881.88
2022-12-11T00:50:17.194Z,97879.25
2022-12-11T00:52:46.056Z,97874.94
2022-12-11T00:55:15.172Z,97886.94
2022-12-11T00:57:47.297Z,97881.75
2022-12-11T01:00:14.696Z,97876.59
2022-12-11T01:02:43.706Z,97891.19
2022-12-11T01:05:11.526Z,97880.06
2022-12-11T01:07:40.568Z,97885.25
2022-12-11T01:10:25.473Z,97876.03
2022-12-11T01:13:04.537Z,97892.78
2022-12-11T01:15:36.452Z,97891.91
2022-12-11T01:18:06.590Z,97908.00
2022-12-11T01:20:37.410Z,97902.94
2022-12-11T01:23:12.829Z,97890.22
2022-12-11T01:25:46.308Z,97900.31
2022-12-11T01:28:15.291Z,97899.41
2022-12-11T01:30:43.692Z,97909.56
2022-12-11T01:33:12.990Z,97907.06
2022-12-11T01:35:40.562Z,97912.88
2022-12-11T01:38:07.358Z,97907.88
2022-12-11T01:40:38.707Z,97904.28
2022-12-11T01:43:05.473Z,97901.00
2022-12-11T01:45:42.035Z,97901.03
2022-12-11T01:48:10.538Z,97901.16
2022-12-11T01:50:44.147Z,97902.69
2022-12-11T01:53:17.782Z,97913.78
2022-12-11T01:55:51.475Z,97908.72
2022-12-11T01:58:20.481Z,97912.09
2022-12-11T02:00:49.565Z,97906.97
2022-12-11T02:03:16.573Z,97901.03
2022-12-11T02:05:43.254Z,97904.34
2022-12-11T02:08:10.282Z,97903.34
2022-12-11T02:11:16.145Z,97890.59
2022-12-11T02:14:08.592Z,97894.78
2022-12-11T02:16:35.079Z,97891.94
2022-12-11T02:19:11.478Z,97898.53
2022-12-11T02:21:46.145Z,97903.38
2022-12-11T02:24:27.883Z,97901.81
2022-12-11T02:26:54.299Z,97892.31
2022-12-11T02:29:37.126Z,97883.16
2022-12-11T02:32:12.730Z,97889.63
2022-12-11T02:34:46.091Z,97888.22
2022-12-11T02:37:20.318Z,97881.31
2022-12-11T02:39:52.633Z,97871.13
2022-12-11T02:42:21.601Z,97874.50
2022-12-11T02:44:53.223Z,97876.25
2022-12-11T02:47:21.275Z,97877.03
2022-12-11T02:49:51.103Z,97878.53
2022-12-11T02:52:22.365Z,97871.69
2022-12-11T02:54:53.786Z,97868.22
2022-12-11T02:57:38.531Z,97875.84
2022-12-11T03:00:08.425Z,97867.22
2022-12-11T03:02:38.540Z,97890.16
2022-12-11T03:05:09.273Z,97889.00
2022-12-11T03:07:41.805Z,97865.41
2022-12-11T03:10:14.758Z,97859.63
2022-12-11T03:12:46.126Z,97862.78
2022-12-11T03:15:20.455Z,97866.16
2022-12-11T03:17:46.990Z,97875.44
2022-12-11T03:20:42.942Z,97880.22
2022-12-11T03:23:21.863Z,97873.66
2022-12-11T03:26:01.935Z,97893.22
2022-12-11T03:28:37.738Z,97875.22
2022-12-11T03:31:11.483Z,97881.09
2022-12-11T03:33:42.051Z,97875.22
2022-12-11T03:36:20.355Z,97871.69
2022-12-11T03:39:05.992Z,97875.22
2022-12-11T03:41:36.146Z,97867.56
2022-12-11T03:44:05.141Z,97870.19
2022-12-11T03:46:37.071Z,97878.41
2022-12-11T03:49:09.413Z,97879.44
2022-12-11T03:51:36.851Z,97884.59
2022-12-11T03:54:05.896Z,97887.72
2022-12-11T03:56:35.911Z,97875.88
2022-12-11T03:59:02.475Z,97886.75
2022-12-11T04:01:29.045Z,97885.16
2022-12-11T04:03:55.831Z,97889.41
2022-12-11T04:06:24.910Z,97886.88
2022-12-11T04:08:53.920Z,97893.75
2022-12-11T04:11:35.171Z,97893.56
2022-12-11T04:14:25.974Z,97890.19
2022-12-11T04:16:53.508Z,97896.78
2022-12-11T04:19:39.054Z,97895.19
2022-12-11T04:22:14.035Z,97896.69
2022-12-11T04:24:42.919Z,97915.38
2022-12-11T04:27:09.846Z,97904.22
2022-12-11T04:29:41.562Z,97915.25
2022-12-11T04:32:08.088Z,97913.72
2022-12-11T04:34:36.994Z,97905.31
2022-12-11T04:37:03.575Z,97913.66
2022-12-11T04:39:32.628Z,97928.00
2022-12-11T04:41:59.196Z,97909.50
2022-12-11T04:44:31.040Z,97930.38
2022-12-11T04:46:57.580Z,97920.13
2022-12-11T04:49:26.516Z,97935.69
2022-12-11T04:51:58.105Z,97940.75
2022-12-11T04:54:29.986Z,97938.84
2022-12-11T04:56:56.483Z,97945.72
2022-12-11T04:59:25.561Z,97950.69
2022-12-11T05:01:52.415Z,97947.50
2022-12-11T05:04:19.407Z,97942.41
2022-12-11T05:06:46.086Z,97963.97
2022-12-11T05:09:17.465Z,97955.81
2022-12-11T05:11:44.141Z,97962.41
2022-12-11T05:14:10.842Z,97972.75
2022-12-11T05:16:39.847Z,97969.22
2022-12-11T05:19:11.640Z,97969.22
2022-12-11T05:21:43.105Z,97959.16
2022-12-11T05:24:17.024Z,97962.28
2022-12-11T05:26:43.672Z,97964.03
2022-12-11T05:29:10.342Z,97957.34
2022-12-11T05:31:37.140Z,97962.41
2022-12-11T05:34:08.564Z,97965.81
2022-12-11T05:36:35.532Z,97952.56
2022-12-11T05:39:03.995Z,97959.16
2022-12-11T05:41:36.466Z,97975.25
2022-12-11T05:44:03.048Z,97972.44
2022-12-11T05:46:33.107Z,97964.13
2022-12-11T05:49:02.936Z,97969.88
2022-12-11T05:51:30.454Z,97967.19
2022-12-11T05:53:59.518Z,97957.25
2022-12-11T05:56:32.071Z,97963.91
2022-12-11T05:58:59.913Z,97967.34
2022-12-11T06:01:29.528Z,97966.63
2022-12-11T06:03:57.390Z,97985.94
2022-12-11T06:06:24.715Z,97986.69
2022-12-11T06:08:55.427Z,97992.84
2022-12-11T06:11:24.301Z,98002.69
2022-12-11T06:13:54.304Z,98016.38
2022-12-11T06:16:21.817Z,98011.19
2022-12-11T06:18:48.487Z,98019.66
2022-12-11T06:21:20.763Z,98029.78
2022-12-11T06:23:52.317Z,98025.69
2022-12-11T06:26:24.058Z,98028.06
2022-12-11T06:28:50.855Z,98040.03
2022-12-11T06:31:22.429Z,98038.38
2022-12-11T06:33:51.811Z,98060.97
2022-12-11T06:36:21.099Z,98044.06
2022-12-11T06:38:51.014Z,98045.09
2022-12-11T06:41:21.115Z,98050.84
2022-12-11T06:43:50.987Z,98044.81
2022-12-11T06:46:20.077Z,98052.19
2022-12-11T06:48:49.533Z,98060.00
2022-12-11T06:51:21.974Z,98061.44
2022-12-11T06:53:56.040Z,98054.72
2022-12-11T06:56:28.056Z,98088.38
2022-12-11T06:58:55.634Z,98074.22
2022-12-11T07:01:27.935Z,98069.91
2022-12-11T07:03:56.938Z,98072.31
2022-12-11T07:06:27.430Z,98059.78
2022-12-11T07:08:56.725Z,98062.50
2022-12-11T07:11:23.353Z,98079.31
2022-12-11T07:13:55.156Z,98073.56
2022-12-11T07:16:29.314Z,98073.63
2022-12-11T07:18:58.364Z,98077.91
2022-12-11T07:21:25.136Z,98067.66
2022-12-11T07:23:54.162Z,98090.50
2022-12-11T07:26:22.241Z,98094.06
2022-12-11T07:28:51.359Z,98083.13
2022-12-11T07:31:30.758Z,98071.16
2022-12-11T07:34:05.138Z,98075.47
2022-12-11T07:36:32.395Z,98084.00
2022-12-11T07:39:02.131Z,98096.94
2022-12-11T07:41:37.703Z,98097.78
2022-12-11T07:44:06.731Z,98113.69
2022-12-11T07:46:34.114Z,98103.50
2022-12-11T07:49:07.591Z,98127.19
2022-12-11T07:51:36.380Z,98134.84
2022-12-11T07:54:09.091Z,98141.53
2022-12-11T07:56:35.752Z,98143.53
2022-12-11T07:59:04.804Z,98156.00
2022-12-11T08:01:35.826Z,98164.56
2022-12-11T08:04:07.318Z,98156.00
2022-12-11T08:06:36.383Z,98169.63
2022-12-11T08:09:06.723Z,98166.16
2022-12-11T08:11:38.637Z,98172.22
2022-12-11T08:14:08.816Z,98167.19
2022-12-11T08:16:39.142Z,98178.78
2022-12-11T08:19:05.853Z,98192.16
2022-12-11T08:21:34.887Z,98197.25
2022-12-11T08:24:03.667Z,98200.75
2022-12-11T08:26:32.252Z,98217.59
2022-12-11T08:29:00.559Z,98231.25
2022-12-11T08:31:29.793Z,98214.50
2022-12-11T08:33:56.997Z,98224.56
2022-12-11T08:36:26.456Z,98226.88
2022-12-11T08:38:58.378Z,98238.13
2022-12-11T08:41:27.613Z,98253.16
2022-12-11T08:43:55.323Z,98253.03
2022-12-11T08:46:27.536Z,98260.84
2022-12-11T08:48:55.775Z,98256.56
2022-12-11T08:51:30.129Z,98280.13
2022-12-11T08:54:01.467Z,98260.78
2022-12-11T08:56:32.412Z,98260.97
2022-12-11T08:59:06.347Z,98266.22
2022-12-11T09:01:33.163Z,98278.47
2022-12-11T09:04:02.824Z,98275.13
2022-12-11T09:06:31.071Z,98264.13
2022-12-11T09:09:02.527Z,98265.69
2022-12-11T09:11:40.126Z,98275.88
2022-12-11T09:14:08.090Z,98282.78
2022-12-11T09:16:40.495Z,98275.06
2022-12-11T09:19:15.392Z,98267.69
2022-12-11T09:21:43.541Z,98266.41
2022-12-11T09:24:12.322Z,98273.34
2022-12-11T09:26:42.401Z,98281.19
2022-12-11T09:29:13.129Z,98283.25
2022-12-11T09:31:42.116Z,98284.25
2022-12-11T09:34:11.834Z,98281.88
2022-12-11T09:36:42.664Z,98276.13
2022-12-11T09:39:11.622Z,98266.63
2022-12-11T09:41:59.986Z,98286.81
2022-12-11T09:44:32.604Z,98281.75
2022-12-11T09:47:02.127Z,98278.56
2022-12-11T09:49:45.087Z,98275.13
2022-12-11T09:56:34.432Z,98270.00
2022-12-11T09:59:40.564Z,98254.97
2022-12-11T10:10:29.233Z,98239.72
2022-12-11T10:13:08.696Z,98237.91
2022-12-11T10:16:10.161Z,98249.91
2022-12-11T10:18:55.874Z,98260.94
2022-12-11T10:25:33.697Z,98271.31
2022-12-11T10:28:14.511Z,98280.41
2022-12-11T10:31:06.015Z,98289.16
2022-12-11T10:34:00.159Z,98306.06
2022-12-11T10:36:29.511Z,98275.66
2022-12-11T10:38:58.541Z,98285.47
2022-12-11T10:41:36.966Z,98283.75
2022-12-11T10:44:15.509Z,98290.47
2022-12-11T10:46:44.907Z,98297.06
2022-12-11T10:49:26.367Z,98304.13
2022-12-11T10:51:57.647Z,98316.38
2022-12-11T10:54:29.639Z,98300.50
2022-12-11T10:57:00.587Z,98300.59
2022-12-11T10:59:33.137Z,98300.59
2022-12-11T11:02:00.376Z,98299.06
2022-12-11T11:04:33.332Z,98288.72
2022-12-11T11:07:11.733Z,98297.91
2022-12-11T11:09:39.910Z,98279.34
2022-12-11T11:12:30.032Z,98287.84
2022-12-11T11:15:27.756Z,98289.66
2022-12-11T11:18:16.774Z,98295.25
2022-12-11T11:20:48.098Z,98270.69
2022-12-11T11:23:17.127Z,98271.53
2022-12-11T11:26:01.724Z,98274.13
2022-12-11T11:28:33.149Z,98276.75
2022-12-11T11:31:05.377Z,98283.63
2022-12-11T11:33:36.539Z,98282.06
2022-12-11T11:36:20.224Z,98286.06
2022-12-11T11:38:58.902Z,98295.91
2022-12-11T11:41:29.307Z,98309.19
2022-12-11T11:44:09.705Z,98309.31
2022-12-11T11:46:44.494Z,98302.63
2022-12-11T11:49:42.039Z,98311.75
2022-12-11T11:52:15.950Z,98308.47
2022-12-11T11:54:53.013Z,98314.94
2022-12-11T11:57:49.930Z,98315.84
2022-12-11T12:00:24.850Z,98321.72
2022-12-11T12:03:18.583Z,98328.50
2022-12-11T12:05:50.733Z,98325.22
2022-12-11T12:08:41.745Z,98331.78
2022-12-11T12:11:39.174Z,98348.16
2022-12-11T12:14:51.673Z,98336.28
2022-12-11T12:17:24.985Z,98341.19
2022-12-11T12:20:10.651Z,98344.59
2022-12-11T12:22:55.315Z,98356.66
2022-12-11T12:26:05.643Z,98348.88
2022-12-11T12:28:45.099Z,98342.31
2022-12-11T12:31:13.237Z,98349.53
2022-12-11T12:34:00.940Z,98336.94
2022-12-11T12:36:41.430Z,98353.91
2022-12-11T12:39:29.170Z,98355.69
2022-12-11T12:42:40.318Z,98351.72
2022-12-11T12:45:15.298Z,98363.88
2022-12-11T12:47:53.337Z,98366.78
2022-12-11T12:50:28.799Z,98376.28
2022-12-11T12:52:58.892Z,98375.00
2022-12-11T12:55:28.967Z,98381.97
2022-12-11T12:58:05.206Z,98382.44
2022-12-11T13:00:34.830Z,98409.38
2022-12-11T13:03:16.781Z,98405.94
2022-12-11T13:05:58.027Z,98416.00
2022-12-11T13:08:27.628Z,98420.38
2022-12-11T13:11:04.237Z,98427.72
2022-12-11T13:13:42.263Z,98431.06
2022-12-11T13:16:17.845Z,98425.06
2022-12-11T13:18:47.858Z,98443.25
2022-12-11T13:21:29.541Z,98454.50
2022-12-11T13:24:14.059Z,98448.50
2022-12-11T13:26:41.752Z,98439.41
2022-12-11T13:29:40.674Z,98442.75
2022-12-11T13:32:10.148Z,98449.91
2022-12-11T13:34:44.234Z,98437.75
2022-12-11T13:37:33.842Z,98460.53
2022-12-11T13:40:08.402Z,98462.41
2022-12-11T13:42:43.251Z,98460.13
2022-12-11T13:45:29.059Z,98465.38
2022-12-11T13:48:01.877Z,98464.81
2022-12-11T13:50:31.731Z,98467.97
2022-12-11T13:53:01.114Z,98482.25
2022-12-11T13:55:36.523Z,98484.63
2022-12-11T13:58:03.141Z,98476.41
2022-12-11T14:00:32.906Z,98483.97
2022-12-11T14:03:04.977Z,98490.06
2022-12-11T14:05:31.752Z,98499.16
2022-12-11T14:08:11.795Z,98497.84
2022-12-11T14:10:42.205Z,98515.63
2022-12-11T14:13:25.563Z,98511.41
2022-12-11T14:15:53.521Z,98528.88
2022-12-11T14:18:29.051Z,98521.66
2022-12-11T14:20:57.120Z,98529.03
2022-12-11T14:23:25.187Z,98529.03
2022-12-11T14:26:00.345Z,98535.91
2022-12-11T14:28:29.354Z,98551.19
2022-12-11T14:31:01.883Z,98550.03
2022-12-11T14:33:33.874Z,98560.16
2022-12-11T14:36:03.649Z,98554.56
2022-12-11T14:38:38.150Z,98555.63
2022-12-11T14:41:20.007Z,98563.25
2022-12-11T14:43:51.683Z,98556.16
2022-12-11T14:46:23.939Z,98558.41
2022-12-11T14:49:02.531Z,98569.97
2022-12-11T14:51:35.999Z,98569.63
2022-12-11T14:54:05.482Z,98573.38
2022-12-11T14:56:32.562Z,98569.34
2022-12-11T14:59:19.910Z,98579.28
2022-12-11T15:02:17.268Z,98576.91
2022-12-11T15:04:44.001Z,98586.88
2022-12-11T15:07:20.713Z,98576.66
2022-12-11T15:09:49.730Z,98590.94
2022-12-11T15:12:20.588Z,98585.75
2022-12-11T15:14:52.171Z,98591.72
2022-12-11T15:17:22.869Z,98592.84
2022-12-11T15:19:55.495Z,98586.06
2022-12-11T15:22:26.402Z,98585.69
2022-12-11T15:24:54.450Z,98600.03
2022-12-11T15:27:37.121Z,98588.72
2022-12-11T15:30:29.835Z,98602.38
2022-12-11T15:33:19.103Z,98602.53
2022-12-11T15:36:02.797Z,98616.00
2022-12-11T15:38:42.234Z,98599.44
2022-12-11T15:41:15.958Z,98614.59
2022-12-11T15:43:44.013Z,98605.03
2022-12-11T15:46:12.821Z,98602.38
2022-12-11T15:48:39.430Z,98600.34
2022-12-11T15:51:06.341Z,98604.00
2022-12-11T15:53:37.624Z,98600.56
2022-12-11T15:56:04.634Z,98603.09
2022-12-11T15:58:34.389Z,98598.44
2022-12-11T16:01:03.295Z,98598.03
2022-12-11T16:03:32.291Z,98608.66
2022-12-11T16:05:58.829Z,98616.53
2022-12-11T16:08:25.507Z,98621.06
2022-12-11T16:10:56.217Z,98631.03
2022-12-11T16:13:23.265Z,98622.41
2022-12-11T16:15:51.380Z,98628.56
2022-12-11T16:18:24.072Z,98626.97
2022-12-11T16:20:53.167Z,98630.41
2022-12-11T16:23:22.288Z,98627.97
2022-12-11T16:25:49.798Z,98630.44
2022-12-11T16:28:21.229Z,98636.34
2022-12-11T16:30:48.069Z,98629.44
2022-12-11T16:33:14.633Z,98626.09
2022-12-11T16:35:43.853Z,98629.31
2022-12-11T16:38:13.556Z,98640.25
2022-12-11T16:40:42.171Z,98641.38
2022-12-11T16:43:10.967Z,98653.53
2022-12-11T16:45:37.441Z,98639.00
2022-12-11T16:48:05.397Z,98639.97
2022-12-11T16:50:32.447Z,98654.19
2022-12-11T16:53:01.362Z,98643.09
2022-12-11T16:55:30.026Z,98636.34
2022-12-11T16:57:59.286Z,98637.47
2022-12-11T17:00:25.878Z,98644.81
2022-12-11T17:02:52.489Z,98641.78
2022-12-11T17:05:19.534Z,98651.19
2022-12-11T17:07:46.175Z,98643.53
2022-12-11T17:10:12.820Z,98639.66
2022-12-11T17:12:44.198Z,98649.03
2022-12-11T17:15:13.253Z,98640.38
2022-12-11T17:17:43.488Z,98632.81
2022-12-11T17:20:13.349Z,98659.34
2022-12-11T17:22:40.024Z,98644.00
2022-12-11T17:25:07.682Z,98645.00
2022-12-11T17:27:39.265Z,98649.22
2022-12-11T17:30:06.348Z,98651.09
2022-12-11T17:32:32.828Z,98644.19
2022-12-11T17:34:59.777Z,98657.75
2022-12-11T17:37:29.012Z,98645.03
2022-12-11T17:39:55.645Z,98643.00
2022-12-11T17:42:25.229Z,98640.22
2022-12-11T17:44:54.288Z,98640.75
2022-12-11T17:47:20.928Z,98648.28
2022-12-11T17:49:47.760Z,98650.19
2022-12-11T17:52:19.473Z,98635.88
2022-12-11T17:54:52.335Z,98645.81
2022-12-11T17:57:19.004Z,98644.09
2022-12-11T17:59:50.285Z,98643.84
2022-12-11T18:02:17.341Z,98657.56
2022-12-11T18:04:47.392Z,98647.41
2022-12-11T18:07:16.237Z,98655.06
2022-12-11T18:09:45.790Z,98653.47
2022-12-11T18:12:17.170Z,98657.75
2022-12-11T18:14:43.687Z,98665.91
2022-12-11T18:17:10.268Z,98657.63
2022-12-11T18:19:44.397Z,98661.59
2022-12-11T18:22:12.456Z,98665.78
2022-12-11T18:24:42.319Z,98665.78
2022-12-11T18:27:15.041Z,98668.53
2022-12-11T18:29:41.664Z,98669.34
2022-12-11T18:32:08.232Z,98669.44
2022-12-11T18:34:34.753Z,98679.69
2022-12-11T18:37:03.827Z,98672.91
2022-12-11T18:39:30.397Z,98689.25
2022-12-11T18:42:30.610Z,98682.31
2022-12-11T18:44:46.473Z,98688.75
2022-12-11T18:47:16.174Z,98680.75
2022-12-11T18:49:43.331Z,98692.44
2022-12-11T18:52:12.319Z,98679.13
2022-12-11T18:54:38.970Z,98694.28
2022-12-11T18:57:07.946Z,98691.72
2022-12-11T18:59:34.659Z,98688.78
2022-12-11T19:02:04.159Z,98683.09
2022-12-11T19:04:32.666Z,98699.13
2022-12-11T19:07:00.956Z,98702.91
2022-12-11T19:09:27.644Z,98694.88
2022-12-11T19:11:54.149Z,98703.66
2022-12-11T19:14:21.083Z,98697.41
2022-12-11T19:16:50.944Z,98702.22
2022-12-11T19:19:20.246Z,98707.59
2022-12-11T19:21:47.984Z,98708.88
2022-12-11T19:24:37.529Z,98713.00
2022-12-11T19:27:08.603Z,98718.56
2022-12-11T19:29:38.410Z,98718.88
2022-12-11T19:32:08.172Z,98717.50
2022-12-11T19:34:38.574Z,98708.34
2022-12-11T19:40:31.928Z,98707.16
2022-12-11T19:43:01.665Z,98713.06
2022-12-11T19:46:15.200Z,98712.09
2022-12-11T19:48:15.416Z,98713.81
2022-12-11T19:50:46.896Z,98718.31
2022-12-11T19:53:15.737Z,98726.50
2022-12-11T19:55:52.170Z,98730.69
2022-12-11T19:58:24.034Z,98716.84
2022-12-11T20:00:50.641Z,98720.97
2022-12-11T20:03:17.646Z,98712.09
2022-12-11T20:05:44.263Z,98716.91
2022-12-11T20:10:57.280Z,98728.97
2022-12-11T20:13:26.282Z,98725.09
2022-12-11T20:15:52.887Z,98729.84
2022-12-11T20:18:19.694Z,98730.09
2022-12-11T20:20:46.348Z,98731.00
2022-12-11T20:23:12.885Z,98727.88
2022-12-11T20:25:40.683Z,98737.22
2022-12-11T20:28:07.226Z,98739.25
2022-12-11T20:30:33.898Z,98723.75
2022-12-11T20:33:05.302Z,98753.53
2022-12-11T20:35:31.880Z,98755.25
2022-12-11T20:37:58.470Z,98752.13
2022-12-11T20:40:25.432Z,98733.53
2022-12-11T20:42:52.038Z,98753.41
2022-12-11T20:45:18.960Z,98744.19
2022-12-11T20:47:45.562Z,98743.53
2022-12-11T20:50:17.172Z,98760.25
2022-12-11T20:52:43.690Z,98743.53
2022-12-11T20:55:11.404Z,98750.94
2022-12-11T20:57:43.477Z,98753.28
2022-12-11T21:00:19.185Z,98760.16
2022-12-11T21:02:51.462Z,98763.38
2022-12-11T21:05:25.436Z,98773.88
2022-12-11T21:07:54.392Z,98764.38
2022-12-11T21:10:21.456Z,98777.44
2022-12-11T21:12:50.681Z,98776.09
2022-12-11T21:15:17.293Z,98786.66
2022-12-11T21:17:47.362Z,98778.78
2022-12-11T21:20:16.873Z,98789.56
2022-12-11T21:22:45.537Z,98799.16
2022-12-11T21:25:12.277Z,98801.19
2022-12-11T21:27:39.162Z,98801.81
2022-12-11T21:30:08.379Z,98794.16
2022-12-11T21:32:35.481Z,98785.91
2022-12-11T21:35:03.116Z,98799.38
2022-12-11T21:37:31.897Z,98806.22
2022-12-11T21:40:00.739Z,98824.84
2022-12-11T21:42:29.714Z,98802.41
2022-12-11T21:45:37.592Z,98809.28
2022-12-11T21:47:42.816Z,98807.72
2022-12-11T21:50:09.705Z,98819.69
2022-12-11T21:52:41.031Z,98821.91
2022-12-11T21:55:11.718Z,98825.34
2022-12-11T21:57:40.668Z,98823.34
2022-12-11T22:00:10.738Z,98834.63
2022-12-11T22:02:40.796Z,98837.03
2022-12-11T22:05:08.485Z,98839.47
2022-12-11T22:07:35.002Z,98830.81
2022-12-11T22:10:06.026Z,98842.66
2022-12-11T22:12:41.697Z,98830.09
2022-12-11T22:15:08.656Z,98843.13
2022-12-11T22:17:44.288Z,98834.69
2022-12-11T22:20:11.515Z,98842.09
2022-12-11T22:22:38.099Z,98840.34
2022-12-11T22:25:07.761Z,98839.56
2022-12-11T22:27:45.954Z,98842.75
2022-12-11T22:30:12.892Z,98839.91
2022-12-11T22:32:39.501Z,98834.22
2022-12-11T22:35:06.527Z,98823.22
2022-12-11T22:37:58.853Z,98811.13
2022-12-11T22:40:28.702Z,98829.78
2022-12-11T22:42:58.736Z,98833.25
2022-12-11T22:48:37.654Z,98831.31
2022-12-11T22:51:05.951Z,98840.44
2022-12-11T22:53:34.925Z,98837.50
2022-12-11T22:56:08.002Z,98840.81
2022-12-11T22:58:37.523Z,98844.78
2022-12-11T23:01:10.854Z,98846.72
2022-12-11T23:03:37.903Z,98845.31
2022-12-11T23:06:12.832Z,98852.88
2022-12-11T23:08:41.021Z,98856.34
2022-12-11T23:14:36.559Z,98845.34
2022-12-11T23:17:11.996Z,98835.50
2022-12-11T23:19:40.814Z,98836.41
2022-12-11T23:22:09.672Z,98832.72
2022-12-11T23:24:38.763Z,98836.75
2022-12-11T23:27:10.047Z,98834.75
2022-12-11T23:29:41.428Z,98831.53
2022-12-11T23:32:10.460Z,98845.34
2022-12-11T23:34:37.672Z,98839.47
2022-12-11T23:37:06.749Z,98832.28
2022-12-11T23:39:35.536Z,98834.28
2022-12-11T23:42:02.323Z,98836.41
2022-12-11T23:44:36.904Z,98832.06
2022-12-11T23:47:03.467Z,98840.53
2022-12-11T23:49:30.178Z,98842.00
2022-12-11T23:52:01.539Z,98830.47
2022-12-11T23:54:32.813Z,98835.22
2022-12-11T23:57:04.113Z,98822.91
2022-12-11T23:59:30.802Z,98830.91
